sensor_id;sensor_type;location;lat;lon;timestamp;P1;durP1;ratioP1;P2;durP2;ratioP2
78148;SDS011;67396;42.664;23.382;2023-02-24T00:01:44;10.00;;;5.38;;
78148;SDS011;67396;42.664;23.382;2023-02-24T00:04:24;9.52;;;5.00;;
78148;SDS011;67396;42.664;23.382;2023-02-24T00:06:49;10.90;;;5.65;;
78148;SDS011;67396;42.664;23.382;2023-02-24T00:09:16;7.57;;;4.60;;
78148;SDS011;67396;42.664;23.382;2023-02-24T00:11:46;8.25;;;4.78;;
78148;SDS011;67396;42.664;23.382;2023-02-24T00:14:13;8.65;;;5.70;;
78148;SDS011;67396;42.664;23.382;2023-02-24T00:16:44;6.47;;;4.05;;
78148;SDS011;67396;42.664;23.382;2023-02-24T00:19:14;9.57;;;5.63;;
78148;SDS011;67396;42.664;23.382;2023-02-24T00:21:42;6.35;;;4.28;;
78148;SDS011;67396;42.664;23.382;2023-02-24T00:24:09;8.18;;;4.53;;
78148;SDS011;67396;42.664;23.382;2023-02-24T00:26:35;7.05;;;5.20;;
78148;SDS011;67396;42.664;23.382;2023-02-24T00:29:02;7.30;;;4.97;;
78148;SDS011;67396;42.664;23.382;2023-02-24T00:31:29;9.23;;;4.80;;
78148;SDS011;67396;42.664;23.382;2023-02-24T00:33:55;7.55;;;4.72;;
78148;SDS011;67396;42.664;23.382;2023-02-24T00:36:22;9.85;;;5.55;;
78148;SDS011;67396;42.664;23.382;2023-02-24T00:38:49;11.75;;;5.78;;
78148;SDS011;67396;42.664;23.382;2023-02-24T00:41:20;8.40;;;6.00;;
78148;SDS011;67396;42.664;23.382;2023-02-24T00:43:47;9.15;;;5.47;;
78148;SDS011;67396;42.664;23.382;2023-02-24T00:46:14;7.32;;;5.25;;
78148;SDS011;67396;42.664;23.382;2023-02-24T00:48:42;7.88;;;4.47;;
78148;SDS011;67396;42.664;23.382;2023-02-24T00:51:13;7.90;;;5.30;;
78148;SDS011;67396;42.664;23.382;2023-02-24T00:53:41;8.50;;;5.38;;
78148;SDS011;67396;42.664;23.382;2023-02-24T00:56:08;8.93;;;5.53;;
78148;SDS011;67396;42.664;23.382;2023-02-24T00:58:36;12.00;;;7.00;;
78148;SDS011;67396;42.664;23.382;2023-02-24T01:01:03;10.65;;;5.63;;
78148;SDS011;67396;42.664;23.382;2023-02-24T01:03:32;8.45;;;5.20;;
78148;SDS011;67396;42.664;23.382;2023-02-24T01:06:01;9.27;;;5.75;;
78148;SDS011;67396;42.664;23.382;2023-02-24T01:08:27;7.80;;;4.72;;
78148;SDS011;67396;42.664;23.382;2023-02-24T01:10:59;8.00;;;4.97;;
78148;SDS011;67396;42.664;23.382;2023-02-24T01:13:43;10.23;;;5.20;;
78148;SDS011;67396;42.664;23.382;2023-02-24T01:16:09;7.03;;;4.97;;
78148;SDS011;67396;42.664;23.382;2023-02-24T01:18:38;8.75;;;5.45;;
78148;SDS011;67396;42.664;23.382;2023-02-24T01:21:04;10.18;;;6.25;;
78148;SDS011;67396;42.664;23.382;2023-02-24T01:23:30;9.00;;;5.53;;
78148;SDS011;67396;42.664;23.382;2023-02-24T01:25:56;7.63;;;5.28;;
78148;SDS011;67396;42.664;23.382;2023-02-24T01:28:24;7.88;;;5.10;;
78148;SDS011;67396;42.664;23.382;2023-02-24T01:30:51;6.22;;;4.57;;
78148;SDS011;67396;42.664;23.382;2023-02-24T01:33:17;6.43;;;4.55;;
78148;SDS011;67396;42.664;23.382;2023-02-24T01:35:42;8.15;;;6.10;;
78148;SDS011;67396;42.664;23.382;2023-02-24T01:38:08;6.97;;;4.13;;
78148;SDS011;67396;42.664;23.382;2023-02-24T01:40:35;8.48;;;4.93;;
78148;SDS011;67396;42.664;23.382;2023-02-24T01:43:00;7.50;;;4.28;;
78148;SDS011;67396;42.664;23.382;2023-02-24T01:45:27;9.15;;;5.05;;
78148;SDS011;67396;42.664;23.382;2023-02-24T01:47:55;9.35;;;6.15;;
78148;SDS011;67396;42.664;23.382;2023-02-24T01:50:24;10.20;;;5.88;;
78148;SDS011;67396;42.664;23.382;2023-02-24T01:52:54;7.50;;;5.15;;
78148;SDS011;67396;42.664;23.382;2023-02-24T01:55:23;12.43;;;6.15;;
78148;SDS011;67396;42.664;23.382;2023-02-24T01:57:56;8.07;;;5.10;;
78148;SDS011;67396;42.664;23.382;2023-02-24T02:00:23;9.20;;;5.53;;
78148;SDS011;67396;42.664;23.382;2023-02-24T02:03:19;8.93;;;4.72;;
78148;SDS011;67396;42.664;23.382;2023-02-24T02:05:49;7.85;;;4.32;;
78148;SDS011;67396;42.664;23.382;2023-02-24T02:08:16;5.70;;;3.70;;
78148;SDS011;67396;42.664;23.382;2023-02-24T02:10:43;11.15;;;3.25;;
78148;SDS011;67396;42.664;23.382;2023-02-24T02:13:10;8.10;;;4.90;;
78148;SDS011;67396;42.664;23.382;2023-02-24T02:15:42;8.77;;;4.50;;
78148;SDS011;67396;42.664;23.382;2023-02-24T02:18:21;7.05;;;4.65;;
78148;SDS011;67396;42.664;23.382;2023-02-24T02:40:15;12.13;;;6.53;;
78148;SDS011;67396;42.664;23.382;2023-02-24T02:42:56;11.50;;;5.53;;
78148;SDS011;67396;42.664;23.382;2023-02-24T02:48:12;8.20;;;4.55;;
78148;SDS011;67396;42.664;23.382;2023-02-24T02:50:48;11.50;;;5.93;;
78148;SDS011;67396;42.664;23.382;2023-02-24T02:53:30;13.35;;;7.20;;
78148;SDS011;67396;42.664;23.382;2023-02-24T02:56:07;7.40;;;4.80;;
78148;SDS011;67396;42.664;23.382;2023-02-24T02:58:42;9.48;;;5.18;;
78148;SDS011;67396;42.664;23.382;2023-02-24T03:01:14;8.27;;;4.55;;
78148;SDS011;67396;42.664;23.382;2023-02-24T03:03:43;6.57;;;3.92;;
78148;SDS011;67396;42.664;23.382;2023-02-24T03:08:46;8.65;;;4.22;;
78148;SDS011;67396;42.664;23.382;2023-02-24T03:11:17;13.77;;;6.45;;
78148;SDS011;67396;42.664;23.382;2023-02-24T03:13:44;10.85;;;5.60;;
78148;SDS011;67396;42.664;23.382;2023-02-24T03:16:15;6.80;;;4.10;;
78148;SDS011;67396;42.664;23.382;2023-02-24T03:18:44;6.63;;;3.65;;
78148;SDS011;67396;42.664;23.382;2023-02-24T03:21:38;8.18;;;3.90;;
78148;SDS011;67396;42.664;23.382;2023-02-24T03:24:09;7.25;;;3.13;;
78148;SDS011;67396;42.664;23.382;2023-02-24T03:26:51;7.95;;;3.80;;
78148;SDS011;67396;42.664;23.382;2023-02-24T03:37:16;9.30;;;4.40;;
78148;SDS011;67396;42.664;23.382;2023-02-24T03:39:49;14.55;;;8.20;;
78148;SDS011;67396;42.664;23.382;2023-02-24T03:42:17;12.00;;;7.20;;
78148;SDS011;67396;42.664;23.382;2023-02-24T03:44:44;13.65;;;7.15;;
78148;SDS011;67396;42.664;23.382;2023-02-24T03:47:11;13.30;;;6.45;;
78148;SDS011;67396;42.664;23.382;2023-02-24T03:49:39;18.73;;;8.13;;
78148;SDS011;67396;42.664;23.382;2023-02-24T03:57:49;11.32;;;5.65;;
78148;SDS011;67396;42.664;23.382;2023-02-24T04:00:23;11.40;;;5.93;;
78148;SDS011;67396;42.664;23.382;2023-02-24T04:03:18;8.70;;;4.50;;
78148;SDS011;67396;42.664;23.382;2023-02-24T04:08:33;11.80;;;5.70;;
78148;SDS011;67396;42.664;23.382;2023-02-24T04:11:11;11.15;;;5.43;;
78148;SDS011;67396;42.664;23.382;2023-02-24T04:13:53;6.95;;;4.20;;
78148;SDS011;67396;42.664;23.382;2023-02-24T04:16:46;10.32;;;5.43;;
78148;SDS011;67396;42.664;23.382;2023-02-24T04:19:17;12.85;;;6.10;;
78148;SDS011;67396;42.664;23.382;2023-02-24T04:21:44;11.15;;;5.32;;
78148;SDS011;67396;42.664;23.382;2023-02-24T04:24:15;9.05;;;4.85;;
78148;SDS011;67396;42.664;23.382;2023-02-24T04:26:45;11.27;;;5.70;;
78148;SDS011;67396;42.664;23.382;2023-02-24T04:29:13;24.38;;;9.90;;
78148;SDS011;67396;42.664;23.382;2023-02-24T04:31:45;17.65;;;6.93;;
78148;SDS011;67396;42.664;23.382;2023-02-24T04:34:14;16.00;;;7.75;;
78148;SDS011;67396;42.664;23.382;2023-02-24T04:36:46;13.63;;;5.55;;
78148;SDS011;67396;42.664;23.382;2023-02-24T04:39:18;17.25;;;6.05;;
78148;SDS011;67396;42.664;23.382;2023-02-24T04:41:47;11.73;;;5.55;;
78148;SDS011;67396;42.664;23.382;2023-02-24T04:44:14;9.90;;;4.45;;
78148;SDS011;67396;42.664;23.382;2023-02-24T04:46:42;8.85;;;5.68;;
78148;SDS011;67396;42.664;23.382;2023-02-24T04:49:09;8.10;;;3.95;;
78148;SDS011;67396;42.664;23.382;2023-02-24T04:51:40;10.88;;;4.25;;
78148;SDS011;67396;42.664;23.382;2023-02-24T04:54:16;9.77;;;4.47;;
78148;SDS011;67396;42.664;23.382;2023-02-24T04:56:43;8.88;;;3.15;;
78148;SDS011;67396;42.664;23.382;2023-02-24T04:59:16;8.65;;;3.28;;
78148;SDS011;67396;42.664;23.382;2023-02-24T05:01:46;4.63;;;2.92;;
78148;SDS011;67396;42.664;23.382;2023-02-24T05:04:15;6.00;;;2.97;;
78148;SDS011;67396;42.664;23.382;2023-02-24T05:06:42;15.75;;;6.82;;
78148;SDS011;67396;42.664;23.382;2023-02-24T05:09:27;17.83;;;8.25;;
78148;SDS011;67396;42.664;23.382;2023-02-24T05:11:55;17.42;;;9.50;;
78148;SDS011;67396;42.664;23.382;2023-02-24T05:14:21;18.77;;;9.00;;
78148;SDS011;67396;42.664;23.382;2023-02-24T05:16:47;16.80;;;7.05;;
78148;SDS011;67396;42.664;23.382;2023-02-24T05:19:17;15.60;;;9.10;;
78148;SDS011;67396;42.664;23.382;2023-02-24T05:22:02;11.85;;;5.30;;
78148;SDS011;67396;42.664;23.382;2023-02-24T05:24:31;12.98;;;4.72;;
78148;SDS011;67396;42.664;23.382;2023-02-24T05:26:57;15.02;;;7.95;;
78148;SDS011;67396;42.664;23.382;2023-02-24T05:29:27;9.32;;;4.55;;
78148;SDS011;67396;42.664;23.382;2023-02-24T05:31:54;10.25;;;4.68;;
78148;SDS011;67396;42.664;23.382;2023-02-24T05:34:23;9.65;;;4.38;;
78148;SDS011;67396;42.664;23.382;2023-02-24T05:36:49;7.38;;;2.95;;
78148;SDS011;67396;42.664;23.382;2023-02-24T05:39:15;6.95;;;3.55;;
78148;SDS011;67396;42.664;23.382;2023-02-24T05:41:44;8.45;;;3.35;;
78148;SDS011;67396;42.664;23.382;2023-02-24T05:44:18;7.93;;;3.88;;
78148;SDS011;67396;42.664;23.382;2023-02-24T05:46:47;7.38;;;3.15;;
78148;SDS011;67396;42.664;23.382;2023-02-24T05:52:13;7.95;;;4.13;;
78148;SDS011;67396;42.664;23.382;2023-02-24T05:54:40;11.50;;;5.38;;
78148;SDS011;67396;42.664;23.382;2023-02-24T05:57:11;13.77;;;6.28;;
78148;SDS011;67396;42.664;23.382;2023-02-24T05:59:39;8.63;;;4.40;;
78148;SDS011;67396;42.664;23.382;2023-02-24T06:02:13;7.47;;;3.80;;
78148;SDS011;67396;42.664;23.382;2023-02-24T06:04:41;8.07;;;4.47;;
78148;SDS011;67396;42.664;23.382;2023-02-24T06:09:43;10.02;;;5.13;;
78148;SDS011;67396;42.664;23.382;2023-02-24T06:12:21;8.68;;;4.95;;
78148;SDS011;67396;42.664;23.382;2023-02-24T06:14:57;9.32;;;5.82;;
78148;SDS011;67396;42.664;23.382;2023-02-24T06:17:23;9.93;;;5.13;;
78148;SDS011;67396;42.664;23.382;2023-02-24T06:19:50;12.68;;;5.97;;
78148;SDS011;67396;42.664;23.382;2023-02-24T06:22:17;9.03;;;4.63;;
78148;SDS011;67396;42.664;23.382;2023-02-24T06:24:44;13.80;;;5.18;;
78148;SDS011;67396;42.664;23.382;2023-02-24T06:27:13;11.10;;;5.35;;
78148;SDS011;67396;42.664;23.382;2023-02-24T06:29:43;11.25;;;5.57;;
78148;SDS011;67396;42.664;23.382;2023-02-24T06:32:14;11.73;;;5.32;;
78148;SDS011;67396;42.664;23.382;2023-02-24T06:34:40;10.20;;;5.22;;
78148;SDS011;67396;42.664;23.382;2023-02-24T06:37:06;12.35;;;5.47;;
78148;SDS011;67396;42.664;23.382;2023-02-24T06:39:34;10.77;;;4.72;;
78148;SDS011;67396;42.664;23.382;2023-02-24T06:42:00;11.95;;;5.20;;
78148;SDS011;67396;42.664;23.382;2023-02-24T06:44:30;11.57;;;5.43;;
78148;SDS011;67396;42.664;23.382;2023-02-24T06:46:56;9.85;;;5.28;;
78148;SDS011;67396;42.664;23.382;2023-02-24T06:49:22;11.30;;;5.07;;
78148;SDS011;67396;42.664;23.382;2023-02-24T06:51:49;9.10;;;4.80;;
78148;SDS011;67396;42.664;23.382;2023-02-24T06:54:15;11.85;;;5.72;;
78148;SDS011;67396;42.664;23.382;2023-02-24T06:56:41;13.20;;;5.45;;
78148;SDS011;67396;42.664;23.382;2023-02-24T06:59:06;11.20;;;4.97;;
78148;SDS011;67396;42.664;23.382;2023-02-24T07:01:40;11.27;;;5.28;;
78148;SDS011;67396;42.664;23.382;2023-02-24T07:04:12;11.27;;;5.05;;
78148;SDS011;67396;42.664;23.382;2023-02-24T07:06:38;12.77;;;4.68;;
78148;SDS011;67396;42.664;23.382;2023-02-24T07:14:12;10.00;;;4.75;;
78148;SDS011;67396;42.664;23.382;2023-02-24T07:16:39;12.68;;;5.78;;
78148;SDS011;67396;42.664;23.382;2023-02-24T07:19:09;14.43;;;6.05;;
78148;SDS011;67396;42.664;23.382;2023-02-24T07:21:38;11.30;;;5.75;;
78148;SDS011;67396;42.664;23.382;2023-02-24T07:24:08;10.30;;;5.22;;
78148;SDS011;67396;42.664;23.382;2023-02-24T07:26:41;10.05;;;5.03;;
78148;SDS011;67396;42.664;23.382;2023-02-24T07:29:08;10.70;;;5.57;;
78148;SDS011;67396;42.664;23.382;2023-02-24T07:31:35;12.13;;;5.65;;
78148;SDS011;67396;42.664;23.382;2023-02-24T07:34:01;11.82;;;4.85;;
78148;SDS011;67396;42.664;23.382;2023-02-24T07:36:27;11.55;;;4.47;;
78148;SDS011;67396;42.664;23.382;2023-02-24T07:39:03;9.95;;;5.22;;
78148;SDS011;67396;42.664;23.382;2023-02-24T07:41:32;9.50;;;4.47;;
78148;SDS011;67396;42.664;23.382;2023-02-24T07:44:01;10.20;;;4.68;;
78148;SDS011;67396;42.664;23.382;2023-02-24T07:46:33;13.93;;;4.90;;
78148;SDS011;67396;42.664;23.382;2023-02-24T07:48:59;8.60;;;4.55;;
78148;SDS011;67396;42.664;23.382;2023-02-24T07:51:25;9.90;;;5.00;;
78148;SDS011;67396;42.664;23.382;2023-02-24T07:53:54;13.45;;;5.75;;
78148;SDS011;67396;42.664;23.382;2023-02-24T07:56:23;11.25;;;5.28;;
78148;SDS011;67396;42.664;23.382;2023-02-24T08:01:46;11.40;;;5.35;;
78148;SDS011;67396;42.664;23.382;2023-02-24T08:04:15;14.07;;;5.78;;
78148;SDS011;67396;42.664;23.382;2023-02-24T08:06:42;14.02;;;6.40;;
78148;SDS011;67396;42.664;23.382;2023-02-24T08:09:10;13.57;;;5.55;;
78148;SDS011;67396;42.664;23.382;2023-02-24T08:14:20;11.43;;;5.50;;
78148;SDS011;67396;42.664;23.382;2023-02-24T08:16:48;13.30;;;5.72;;
78148;SDS011;67396;42.664;23.382;2023-02-24T08:19:16;10.02;;;5.60;;
78148;SDS011;67396;42.664;23.382;2023-02-24T08:21:46;14.73;;;6.32;;
78148;SDS011;67396;42.664;23.382;2023-02-24T08:24:17;13.65;;;6.93;;
78148;SDS011;67396;42.664;23.382;2023-02-24T08:26:48;16.40;;;7.05;;
78148;SDS011;67396;42.664;23.382;2023-02-24T08:29:37;15.73;;;5.85;;
78148;SDS011;67396;42.664;23.382;2023-02-24T08:32:22;9.57;;;4.75;;
78148;SDS011;67396;42.664;23.382;2023-02-24T08:34:48;9.95;;;5.50;;
78148;SDS011;67396;42.664;23.382;2023-02-24T08:37:14;10.40;;;5.57;;
78148;SDS011;67396;42.664;23.382;2023-02-24T08:39:40;13.02;;;6.00;;
78148;SDS011;67396;42.664;23.382;2023-02-24T08:42:07;9.32;;;5.28;;
78148;SDS011;67396;42.664;23.382;2023-02-24T08:44:36;11.60;;;5.65;;
78148;SDS011;67396;42.664;23.382;2023-02-24T08:47:02;11.90;;;5.95;;
78148;SDS011;67396;42.664;23.382;2023-02-24T08:49:29;13.05;;;5.70;;
78148;SDS011;67396;42.664;23.382;2023-02-24T08:51:57;11.07;;;6.38;;
78148;SDS011;67396;42.664;23.382;2023-02-24T08:54:26;12.02;;;6.53;;
78148;SDS011;67396;42.664;23.382;2023-02-24T08:56:56;13.73;;;6.03;;
78148;SDS011;67396;42.664;23.382;2023-02-24T08:59:32;13.82;;;5.80;;
78148;SDS011;67396;42.664;23.382;2023-02-24T09:02:05;14.57;;;6.45;;
78148;SDS011;67396;42.664;23.382;2023-02-24T09:04:46;15.07;;;6.47;;
78148;SDS011;67396;42.664;23.382;2023-02-24T09:07:28;12.18;;;6.88;;
78148;SDS011;67396;42.664;23.382;2023-02-24T09:10:22;17.40;;;7.38;;
78148;SDS011;67396;42.664;23.382;2023-02-24T09:12:47;11.85;;;5.78;;
78148;SDS011;67396;42.664;23.382;2023-02-24T09:15:13;10.00;;;6.15;;
78148;SDS011;67396;42.664;23.382;2023-02-24T09:17:41;9.65;;;5.47;;
78148;SDS011;67396;42.664;23.382;2023-02-24T09:20:14;10.57;;;6.05;;
78148;SDS011;67396;42.664;23.382;2023-02-24T09:23:07;9.88;;;5.25;;
78148;SDS011;67396;42.664;23.382;2023-02-24T09:25:44;8.70;;;5.75;;
78148;SDS011;67396;42.664;23.382;2023-02-24T09:30:57;12.38;;;6.05;;
78148;SDS011;67396;42.664;23.382;2023-02-24T09:35:52;13.55;;;6.22;;
78148;SDS011;67396;42.664;23.382;2023-02-24T09:38:19;13.93;;;6.50;;
78148;SDS011;67396;42.664;23.382;2023-02-24T09:41:00;12.57;;;5.93;;
78148;SDS011;67396;42.664;23.382;2023-02-24T09:43:30;12.32;;;6.25;;
78148;SDS011;67396;42.664;23.382;2023-02-24T09:46:11;13.52;;;7.43;;
78148;SDS011;67396;42.664;23.382;2023-02-24T09:51:41;15.57;;;6.72;;
78148;SDS011;67396;42.664;23.382;2023-02-24T09:54:11;13.85;;;6.35;;
78148;SDS011;67396;42.664;23.382;2023-02-24T09:56:40;10.80;;;5.85;;
78148;SDS011;67396;42.664;23.382;2023-02-24T10:01:53;11.00;;;6.22;;
78148;SDS011;67396;42.664;23.382;2023-02-24T10:07:18;16.00;;;8.15;;
78148;SDS011;67396;42.664;23.382;2023-02-24T10:09:54;35.55;;;10.95;;
78148;SDS011;67396;42.664;23.382;2023-02-24T10:12:43;33.13;;;14.48;;
78148;SDS011;67396;42.664;23.382;2023-02-24T10:15:14;31.90;;;11.60;;
78148;SDS011;67396;42.664;23.382;2023-02-24T10:18:36;17.58;;;7.13;;
78148;SDS011;67396;42.664;23.382;2023-02-24T10:21:42;35.58;;;7.68;;
78148;SDS011;67396;42.664;23.382;2023-02-24T10:27:17;23.10;;;8.68;;
78148;SDS011;67396;42.664;23.382;2023-02-24T10:32:50;15.38;;;6.80;;
78148;SDS011;67396;42.664;23.382;2023-02-24T10:35:19;12.60;;;6.10;;
78148;SDS011;67396;42.664;23.382;2023-02-24T10:37:49;12.02;;;7.80;;
78148;SDS011;67396;42.664;23.382;2023-02-24T10:40:16;17.25;;;6.75;;
78148;SDS011;67396;42.664;23.382;2023-02-24T10:42:50;14.23;;;6.78;;
78148;SDS011;67396;42.664;23.382;2023-02-24T10:45:28;15.85;;;8.27;;
78148;SDS011;67396;42.664;23.382;2023-02-24T10:47:56;15.90;;;7.60;;
78148;SDS011;67396;42.664;23.382;2023-02-24T10:50:27;14.95;;;7.93;;
78148;SDS011;67396;42.664;23.382;2023-02-24T10:53:03;20.88;;;8.50;;
78148;SDS011;67396;42.664;23.382;2023-02-24T10:55:43;14.90;;;8.27;;
78148;SDS011;67396;42.664;23.382;2023-02-24T11:00:55;17.30;;;9.35;;
78148;SDS011;67396;42.664;23.382;2023-02-24T11:03:38;67.07;;;14.40;;
78148;SDS011;67396;42.664;23.382;2023-02-24T11:06:24;17.77;;;8.73;;
78148;SDS011;67396;42.664;23.382;2023-02-24T11:09:13;50.47;;;12.55;;
78148;SDS011;67396;42.664;23.382;2023-02-24T11:11:52;13.77;;;8.05;;
78148;SDS011;67396;42.664;23.382;2023-02-24T11:15:00;38.70;;;12.10;;
78148;SDS011;67396;42.664;23.382;2023-02-24T11:17:46;16.70;;;8.50;;
78148;SDS011;67396;42.664;23.382;2023-02-24T11:20:18;13.95;;;7.30;;
78148;SDS011;67396;42.664;23.382;2023-02-24T11:22:50;33.97;;;11.18;;
78148;SDS011;67396;42.664;23.382;2023-02-24T11:25:32;12.98;;;6.93;;
78148;SDS011;67396;42.664;23.382;2023-02-24T11:27:59;20.90;;;9.02;;
78148;SDS011;67396;42.664;23.382;2023-02-24T11:36:05;13.93;;;8.55;;
78148;SDS011;67396;42.664;23.382;2023-02-24T11:41:22;17.25;;;8.90;;
78148;SDS011;67396;42.664;23.382;2023-02-24T11:43:55;24.80;;;8.82;;
78148;SDS011;67396;42.664;23.382;2023-02-24T11:46:44;17.83;;;10.25;;
78148;SDS011;67396;42.664;23.382;2023-02-24T11:52:01;21.27;;;8.93;;
78148;SDS011;67396;42.664;23.382;2023-02-24T11:54:42;29.08;;;12.40;;
78148;SDS011;67396;42.664;23.382;2023-02-24T11:57:12;15.10;;;8.38;;
78148;SDS011;67396;42.664;23.382;2023-02-24T11:59:45;14.65;;;8.57;;
78148;SDS011;67396;42.664;23.382;2023-02-24T12:05:12;14.98;;;8.38;;
78148;SDS011;67396;42.664;23.382;2023-02-24T12:07:48;15.82;;;8.45;;
78148;SDS011;67396;42.664;23.382;2023-02-24T12:10:30;15.23;;;8.07;;
78148;SDS011;67396;42.664;23.382;2023-02-24T12:13:01;16.58;;;8.30;;
78148;SDS011;67396;42.664;23.382;2023-02-24T12:15:55;14.32;;;8.18;;
78148;SDS011;67396;42.664;23.382;2023-02-24T12:21:26;15.30;;;8.35;;
78148;SDS011;67396;42.664;23.382;2023-02-24T12:24:00;15.18;;;7.10;;
78148;SDS011;67396;42.664;23.382;2023-02-24T12:40:41;17.52;;;8.73;;
78148;SDS011;67396;42.664;23.382;2023-02-24T12:43:21;16.20;;;9.63;;
78148;SDS011;67396;42.664;23.382;2023-02-24T12:59:26;32.97;;;13.88;;
78148;SDS011;67396;42.664;23.382;2023-02-24T13:12:50;14.20;;;7.95;;
78148;SDS011;67396;42.664;23.382;2023-02-24T13:15:25;13.23;;;8.43;;
78148;SDS011;67396;42.664;23.382;2023-02-24T13:17:55;14.07;;;8.63;;
78148;SDS011;67396;42.664;23.382;2023-02-24T13:20:29;19.10;;;8.68;;
78148;SDS011;67396;42.664;23.382;2023-02-24T13:22:55;15.98;;;8.73;;
78148;SDS011;67396;42.664;23.382;2023-02-24T13:25:23;17.05;;;8.68;;
78148;SDS011;67396;42.664;23.382;2023-02-24T13:27:59;20.23;;;9.75;;
78148;SDS011;67396;42.664;23.382;2023-02-24T13:30:37;18.90;;;9.95;;
78148;SDS011;67396;42.664;23.382;2023-02-24T13:33:17;16.88;;;9.02;;
78148;SDS011;67396;42.664;23.382;2023-02-24T13:35:47;16.15;;;9.68;;
78148;SDS011;67396;42.664;23.382;2023-02-24T13:41:19;18.70;;;10.38;;
78148;SDS011;67396;42.664;23.382;2023-02-24T13:46:26;16.10;;;10.07;;
78148;SDS011;67396;42.664;23.382;2023-02-24T13:56:53;22.55;;;12.07;;
78148;SDS011;67396;42.664;23.382;2023-02-24T14:01:57;25.13;;;14.05;;
78148;SDS011;67396;42.664;23.382;2023-02-24T14:04:29;26.10;;;13.50;;
78148;SDS011;67396;42.664;23.382;2023-02-24T14:07:00;21.55;;;12.57;;
78148;SDS011;67396;42.664;23.382;2023-02-24T14:09:32;23.17;;;12.38;;
78148;SDS011;67396;42.664;23.382;2023-02-24T14:12:13;24.42;;;12.13;;
78148;SDS011;67396;42.664;23.382;2023-02-24T14:14:43;24.73;;;13.00;;
78148;SDS011;67396;42.664;23.382;2023-02-24T14:19:52;22.60;;;12.65;;
78148;SDS011;67396;42.664;23.382;2023-02-24T14:22:31;22.13;;;13.75;;
78148;SDS011;67396;42.664;23.382;2023-02-24T14:25:02;24.23;;;13.55;;
78148;SDS011;67396;42.664;23.382;2023-02-24T14:27:30;22.85;;;12.48;;
78148;SDS011;67396;42.664;23.382;2023-02-24T14:29:56;25.23;;;12.20;;
78148;SDS011;67396;42.664;23.382;2023-02-24T14:32:25;25.52;;;13.13;;
78148;SDS011;67396;42.664;23.382;2023-02-24T14:34:52;24.52;;;12.25;;
78148;SDS011;67396;42.664;23.382;2023-02-24T14:37:23;22.33;;;13.07;;
78148;SDS011;67396;42.664;23.382;2023-02-24T14:39:53;18.77;;;11.38;;
78148;SDS011;67396;42.664;23.382;2023-02-24T14:42:21;21.65;;;12.05;;
78148;SDS011;67396;42.664;23.382;2023-02-24T14:44:56;24.67;;;13.07;;
78148;SDS011;67396;42.664;23.382;2023-02-24T14:47:26;21.98;;;13.73;;
78148;SDS011;67396;42.664;23.382;2023-02-24T14:49:56;23.33;;;13.45;;
78148;SDS011;67396;42.664;23.382;2023-02-24T14:57:43;28.55;;;16.65;;
78148;SDS011;67396;42.664;23.382;2023-02-24T15:00:31;28.52;;;15.50;;
78148;SDS011;67396;42.664;23.382;2023-02-24T15:03:10;28.77;;;15.00;;
78148;SDS011;67396;42.664;23.382;2023-02-24T15:05:42;29.08;;;16.20;;
78148;SDS011;67396;42.664;23.382;2023-02-24T15:08:30;25.92;;;15.50;;
78148;SDS011;67396;42.664;23.382;2023-02-24T15:10:58;26.70;;;15.77;;
78148;SDS011;67396;42.664;23.382;2023-02-24T15:13:34;33.10;;;16.35;;
78148;SDS011;67396;42.664;23.382;2023-02-24T15:16:19;30.15;;;17.35;;
78148;SDS011;67396;42.664;23.382;2023-02-24T15:18:54;27.30;;;15.75;;
78148;SDS011;67396;42.664;23.382;2023-02-24T15:21:32;36.88;;;17.25;;
78148;SDS011;67396;42.664;23.382;2023-02-24T15:24:03;34.00;;;16.95;;
78148;SDS011;67396;42.664;23.382;2023-02-24T15:26:49;26.55;;;14.85;;
78148;SDS011;67396;42.664;23.382;2023-02-24T15:29:20;31.58;;;14.82;;
78148;SDS011;67396;42.664;23.382;2023-02-24T15:31:49;23.60;;;14.10;;
78148;SDS011;67396;42.664;23.382;2023-02-24T15:34:16;24.83;;;14.30;;
78148;SDS011;67396;42.664;23.382;2023-02-24T15:36:44;23.95;;;14.05;;
78148;SDS011;67396;42.664;23.382;2023-02-24T15:39:23;22.77;;;14.40;;
78148;SDS011;67396;42.664;23.382;2023-02-24T15:45:02;27.35;;;13.43;;
78148;SDS011;67396;42.664;23.382;2023-02-24T15:47:40;25.35;;;14.43;;
78148;SDS011;67396;42.664;23.382;2023-02-24T15:50:10;23.90;;;13.15;;
78148;SDS011;67396;42.664;23.382;2023-02-24T15:52:36;25.23;;;14.65;;
78148;SDS011;67396;42.664;23.382;2023-02-24T15:55:04;29.27;;;14.70;;
78148;SDS011;67396;42.664;23.382;2023-02-24T15:57:31;27.85;;;15.48;;
78148;SDS011;67396;42.664;23.382;2023-02-24T16:00:17;26.70;;;14.95;;
78148;SDS011;67396;42.664;23.382;2023-02-24T16:02:44;27.42;;;15.57;;
78148;SDS011;67396;42.664;23.382;2023-02-24T16:05:13;35.03;;;16.77;;
78148;SDS011;67396;42.664;23.382;2023-02-24T16:07:40;28.98;;;15.30;;
78148;SDS011;67396;42.664;23.382;2023-02-24T16:10:13;24.20;;;14.95;;
78148;SDS011;67396;42.664;23.382;2023-02-24T16:12:51;29.95;;;16.08;;
78148;SDS011;67396;42.664;23.382;2023-02-24T16:15:23;28.02;;;15.95;;
78148;SDS011;67396;42.664;23.382;2023-02-24T16:17:53;28.67;;;14.82;;
78148;SDS011;67396;42.664;23.382;2023-02-24T16:20:23;29.70;;;14.48;;
78148;SDS011;67396;42.664;23.382;2023-02-24T16:25:20;24.00;;;13.25;;
78148;SDS011;67396;42.664;23.382;2023-02-24T16:27:45;27.35;;;14.75;;
78148;SDS011;67396;42.664;23.382;2023-02-24T16:30:18;29.80;;;14.50;;
78148;SDS011;67396;42.664;23.382;2023-02-24T16:32:44;25.52;;;15.68;;
78148;SDS011;67396;42.664;23.382;2023-02-24T16:35:11;32.08;;;14.82;;
78148;SDS011;67396;42.664;23.382;2023-02-24T16:37:37;25.95;;;15.15;;
78148;SDS011;67396;42.664;23.382;2023-02-24T16:40:04;24.58;;;14.95;;
78148;SDS011;67396;42.664;23.382;2023-02-24T16:42:45;28.90;;;13.23;;
78148;SDS011;67396;42.664;23.382;2023-02-24T16:45:11;27.00;;;13.85;;
78148;SDS011;67396;42.664;23.382;2023-02-24T16:47:37;28.38;;;14.75;;
78148;SDS011;67396;42.664;23.382;2023-02-24T16:50:02;30.63;;;15.65;;
78148;SDS011;67396;42.664;23.382;2023-02-24T16:52:28;28.52;;;14.75;;
78148;SDS011;67396;42.664;23.382;2023-02-24T16:54:54;28.02;;;14.80;;
78148;SDS011;67396;42.664;23.382;2023-02-24T16:57:19;28.88;;;14.95;;
78148;SDS011;67396;42.664;23.382;2023-02-24T16:59:52;31.80;;;15.20;;
78148;SDS011;67396;42.664;23.382;2023-02-24T17:02:21;29.73;;;14.45;;
78148;SDS011;67396;42.664;23.382;2023-02-24T17:04:51;58.58;;;34.65;;
78148;SDS011;67396;42.664;23.382;2023-02-24T17:07:17;45.70;;;23.48;;
78148;SDS011;67396;42.664;23.382;2023-02-24T17:09:44;46.22;;;22.67;;
78148;SDS011;67396;42.664;23.382;2023-02-24T17:12:10;36.72;;;20.58;;
78148;SDS011;67396;42.664;23.382;2023-02-24T17:14:44;36.17;;;20.50;;
78148;SDS011;67396;42.664;23.382;2023-02-24T17:17:09;35.70;;;18.63;;
78148;SDS011;67396;42.664;23.382;2023-02-24T17:19:35;38.70;;;18.77;;
78148;SDS011;67396;42.664;23.382;2023-02-24T17:22:01;34.15;;;17.95;;
78148;SDS011;67396;42.664;23.382;2023-02-24T17:24:28;30.83;;;16.52;;
78148;SDS011;67396;42.664;23.382;2023-02-24T17:26:54;28.67;;;15.98;;
78148;SDS011;67396;42.664;23.382;2023-02-24T17:29:23;29.02;;;16.38;;
78148;SDS011;67396;42.664;23.382;2023-02-24T17:31:49;37.97;;;18.85;;